Wendel, West Virginia
Current Conditions -  °F | °C
As of 9:53 PM on Friday 19 Dec 2014 (Local Time) from KCKB Reporting Station
Overcast Overcast  
Wind Chill: -2°   Ceiling: 1800
Heat Index: -2°   Visibility: 10mi
Dew Point: -5°   Wind: 3mph
Humidity: 78%   Direction: 20°NNE
Pressure: 30.27"   Gusts: NA
Location:  39.2753°N, 80.1249°W
Report Text: KCKB 200253Z 02003KT 10SM OVC018 M02/M05 A3027 RMK AO2 SLP260 T10171050 51004
Loading
Personal Weather Stations






























Interactive Weather Map New forecast layout! Learn more

10-Day Weather Forecast

Advertisements
Track Severe Weather on mobile